Blue Vision — MRNB — position and weather

sailwx.info

Track history (hours):
 
Tides Stations Pressure Air Temp Water Temp Dewpoint Dewpoint depression Visibility Wind Speed Wind Dir Waves Ship positions

Blue Vision

Last reported at 2014-Jul-14 00:20 UTC. Time now 2014-Jul-14 01:32 UTC.
Position N 43°42' E 007°17'.

Length 45 m; draft 3 m.

Type: Pleasure craft. MMSI: 235054475.

Date/timePositionNaut miles runAvg speedWind from/ knotsBaromVisibWave heightAir tempDewpointWater temp
2014-Jul-14 00:20N 43°42' E 007°17'0 0.0
2014-Jul-13 12:32N 43°42' E 007°17'0 0.0
2014-Jul-12 08:32N 43°42' E 007°17'1010.6
2014-Jul-12 07:33N 43°33' E 007°09'2 1.9
2014-Jul-12 06:33N 43°34' E 007°07'0 0.0
2014-Jul-12 05:33N 43°34' E 007°07'0 0.0
2014-Jul-12 04:33N 43°34' E 007°07'0 0.0
2014-Jul-12 03:33N 43°34' E 007°07'0 0.0
2014-Jul-12 02:33N 43°34' E 007°07'0 0.0
2014-Jul-12 01:33N 43°34' E 007°07'0 0.0
2014-Jul-12 00:33N 43°34' E 007°07'0 0.0
2014-Jul-11 23:33N 43°34' E 007°07'0 0.0
2014-Jul-11 22:33N 43°34' E 007°07'0 0.0
2014-Jul-11 21:33N 43°34' E 007°07'0 0.0
2014-Jul-11 20:33N 43°34' E 007°07'0 0.0
2014-Jul-11 19:33N 43°34' E 007°07'3 3.1
2014-Jul-11 18:33N 43°31' E 007°05'6 5.8
2014-Jul-11 17:32N 43°31' E 006°57'0 0.0
2014-Jul-11 16:33N 43°31' E 006°57'0 0.0
2014-Jul-11 15:33N 43°31' E 006°57'0 0.0
2014-Jul-11 14:33N 43°31' E 006°57'0 0.0
2014-Jul-11 13:33N 43°31' E 006°57'0 0.0
2014-Jul-11 12:34N 43°31' E 006°57'0 0.0
2014-Jul-11 11:33N 43°31' E 006°57'0 0.0
2014-Jul-11 10:34N 43°31' E 006°57'7 6.5
2014-Jul-11 09:33N 43°24' E 006°54'1010.3
2014-Jul-11 08:33N 43°16' E 006°45'1313.3
2014-Jul-11 07:33N 43°27' E 006°57'7 6.9
2014-Jul-11 06:32N 43°32' E 007°02'0 0.0
2014-Jul-11 05:29N 43°32' E 007°02'0 0.0
2014-Jul-11 04:32N 43°32' E 007°02'0 0.0
2014-Jul-11 03:32N 43°32' E 007°02'0 0.0
2014-Jul-11 02:29N 43°32' E 007°02'0 0.0
2014-Jul-11 01:32N 43°32' E 007°02'0 0.0
2014-Jul-11 00:29N 43°32' E 007°02'0 0.0
2014-Jul-10 23:32N 43°32' E 007°02'0 0.0
2014-Jul-10 22:29N 43°32' E 007°02'0 0.0
2014-Jul-10 21:29N 43°32' E 007°02'0 0.0
2014-Jul-10 20:32N 43°32' E 007°02'0 0.0
2014-Jul-10 19:32N 43°32' E 007°02'0 0.0
2014-Jul-10 18:32N 43°32' E 007°02'1 1.0
2014-Jul-10 17:33N 43°32' E 007°01'3 2.9
2014-Jul-10 16:28N 43°31' E 006°57'0 0.0
2014-Jul-10 15:28N 43°31' E 006°57'0 0.0
2014-Jul-10 14:31N 43°31' E 006°57'0 0.0
2014-Jul-10 13:31N 43°31' E 006°57'0 0.0
2014-Jul-10 12:31N 43°31' E 006°57'0 0.0
2014-Jul-10 11:31N 43°31' E 006°57'2 2.3
2014-Jul-10 10:33N 43°28' E 006°57'1111.5
2014-Jul-10 09:33N 43°21' E 006°46'8 7.9
2014-Jul-10 08:33N 43°17' E 006°36'0 0.0
2014-Jul-10 07:33N 43°17' E 006°36'0 0.1
2014-Jul-10 06:33N 43°17' E 006°36'9 9.1
2014-Jul-10 05:33N 43°21' E 006°47'1312.5
2014-Jul-10 04:33N 43°29' E 007°01'6 5.9
2014-Jul-10 03:33N 43°34' E 007°06'0 0.0
2014-Jul-10 02:33N 43°33' E 007°06'0 0.0
2014-Jul-10 01:33N 43°33' E 007°06'0 0.0
2014-Jul-10 00:33N 43°34' E 007°06'0 0.0
2014-Jul-09 23:33N 43°33' E 007°06'0 0.0
2014-Jul-09 22:33N 43°34' E 007°06'0 0.0
2014-Jul-09 21:33N 43°33' E 007°06'0 0.0
2014-Jul-09 20:33N 43°34' E 007°06'0 0.0
2014-Jul-09 19:33N 43°33' E 007°06'0 0.0
2014-Jul-09 18:21N 43°34' E 007°06'0 0.0
2014-Jul-09 17:33N 43°33' E 007°06'0 0.0
2014-Jul-09 16:33N 43°33' E 007°06'1 0.9
2014-Jul-09 15:31N 43°33' E 007°07'0 0.0
2014-Jul-09 14:33N 43°33' E 007°07'0 0.0
2014-Jul-09 13:33N 43°33' E 007°07'0 0.0
2014-Jul-09 12:33N 43°33' E 007°07'0 0.0
2014-Jul-09 11:33N 43°33' E 007°07'4 4.5
2014-Jul-09 10:34N 43°35' E 007°13'1312.8
2014-Jul-09 09:32N 43°44' E 007°26'1 0.0
2014-Jul-07 16:09N 43°44' E 007°26'5 8.1
2014-Jul-07 15:33N 43°42' E 007°20'0 0.0
2014-Jul-07 14:25N 43°42' E 007°20'57 4.1
2014-Jul-07 00:32N 43°52' E 008°39'1312.8
2014-Jul-06 23:33N 43°54' E 008°56'1212.5
2014-Jul-06 22:33N 43°56' E 009°13'1212.4
2014-Jul-06 21:33N 43°58' E 009°30'1312.6
2014-Jul-06 20:33N 44°01' E 009°47'4 3.8
2014-Jul-06 19:33N 44°03' E 009°51'0 0.0
2014-Jul-06 18:33N 44°03' E 009°51'0 0.0
2014-Jul-06 17:33N 44°03' E 009°51'0 0.0
2014-Jul-06 16:33N 44°03' E 009°51'0 0.0
2014-Jul-06 15:33N 44°03' E 009°51'0 0.0
2014-Jul-06 14:33N 44°03' E 009°51'0 0.0
2014-Jul-06 13:33N 44°03' E 009°51'0 0.0
2014-Jul-06 12:33N 44°03' E 009°51'0 0.0
2014-Jul-06 11:33N 44°03' E 009°51'0 0.0
2014-Jul-06 10:33N 44°03' E 009°51'0 0.0
2014-Jul-06 09:33N 44°03' E 009°51'0 0.0
2014-Jul-06 08:33N 44°03' E 009°51'0 0.0
2014-Jul-06 07:33N 44°03' E 009°51'0 0.0
2014-Jul-06 06:33N 44°03' E 009°51'0 0.0
2014-Jul-06 05:33N 44°03' E 009°51'0 0.0
2014-Jul-06 04:33N 44°03' E 009°51'0 0.0
2014-Jul-06 03:33N 44°03' E 009°51'0 0.0
2014-Jul-06 02:33N 44°03' E 009°51'0 0.0
2014-Jul-06 01:33N 44°03' E 009°51'1 0.6
2014-Jul-06 00:34N 44°03' E 009°52'9 8.5
2014-Jul-05 23:33N 44°05' E 009°40'1211.8
2014-Jul-05 22:33N 44°11' E 009°27'1211.2
2014-Jul-05 21:31N 44°18' E 009°14'0 0.2
2014-Jul-05 19:12N 44°19' E 009°13'0 0.0
2014-Jul-05 18:24N 44°19' E 009°13'0 0.0
2014-Jul-05 16:06N 44°19' E 009°13'0 0.0
2014-Jul-05 11:09N 44°19' E 009°13'0 0.0
2014-Jul-04 13:08N 44°18' E 009°13'2 2.8
2014-Jul-04 12:33N 44°18' E 009°11'1211.5
2014-Jul-04 11:33N 44°20' E 008°55'6 5.8
2014-Jul-04 10:33N 44°25' E 008°50'0 0.0
2014-Jul-04 07:21N 44°25' E 008°50'0 0.0
2014-Jul-04 06:33N 44°25' E 008°50'0 0.0
2014-Jul-04 04:30N 44°25' E 008°50'0 0.0
2014-Jul-04 03:30N 44°25' E 008°50'0 0.0
2014-Jul-04 02:30N 44°25' E 008°50'0 0.0
2014-Jul-04 01:33N 44°25' E 008°50'0 0.0
2014-Jul-04 00:33N 44°25' E 008°50'  
Track history (hours):
 
Tides Stations Pressure Air Temp Water Temp Dewpoint Dewpoint depression Visibility Wind Speed Wind Dir Waves Ship positions

Blue Vision

Last reported at 2014-Jul-14 00:20 UTC. Time now 2014-Jul-14 01:32 UTC.
Position N 43°42' E 007°17'.

Length 45 m; draft 3 m.

Type: Pleasure craft. MMSI: 235054475.

Date/timePositionNaut miles runAvg speedWind from/ knotsBaromVisibWave heightAir tempDewpointWater temp
2014-Jul-14 00:20N 43°42' E 007°17'0 0.0
2014-Jul-13 12:32N 43°42' E 007°17'0 0.0
2014-Jul-12 08:32N 43°42' E 007°17'1010.6
2014-Jul-12 07:33N 43°33' E 007°09'2 1.9
2014-Jul-12 06:33N 43°34' E 007°07'0 0.0
2014-Jul-12 05:33N 43°34' E 007°07'0 0.0
2014-Jul-12 04:33N 43°34' E 007°07'0 0.0
2014-Jul-12 03:33N 43°34' E 007°07'0 0.0
2014-Jul-12 02:33N 43°34' E 007°07'0 0.0
2014-Jul-12 01:33N 43°34' E 007°07'0 0.0
2014-Jul-12 00:33N 43°34' E 007°07'0 0.0
2014-Jul-11 23:33N 43°34' E 007°07'0 0.0
2014-Jul-11 22:33N 43°34' E 007°07'0 0.0
2014-Jul-11 21:33N 43°34' E 007°07'0 0.0
2014-Jul-11 20:33N 43°34' E 007°07'0 0.0
2014-Jul-11 19:33N 43°34' E 007°07'3 3.1
2014-Jul-11 18:33N 43°31' E 007°05'6 5.8
2014-Jul-11 17:32N 43°31' E 006°57'0 0.0
2014-Jul-11 16:33N 43°31' E 006°57'0 0.0
2014-Jul-11 15:33N 43°31' E 006°57'0 0.0
2014-Jul-11 14:33N 43°31' E 006°57'0 0.0
2014-Jul-11 13:33N 43°31' E 006°57'0 0.0
2014-Jul-11 12:34N 43°31' E 006°57'0 0.0
2014-Jul-11 11:33N 43°31' E 006°57'0 0.0
2014-Jul-11 10:34N 43°31' E 006°57'7 6.5
2014-Jul-11 09:33N 43°24' E 006°54'1010.3
2014-Jul-11 08:33N 43°16' E 006°45'1313.3
2014-Jul-11 07:33N 43°27' E 006°57'7 6.9
2014-Jul-11 06:32N 43°32' E 007°02'0 0.0
2014-Jul-11 05:29N 43°32' E 007°02'0 0.0
2014-Jul-11 04:32N 43°32' E 007°02'0 0.0
2014-Jul-11 03:32N 43°32' E 007°02'0 0.0
2014-Jul-11 02:29N 43°32' E 007°02'0 0.0
2014-Jul-11 01:32N 43°32' E 007°02'0 0.0
2014-Jul-11 00:29N 43°32' E 007°02'0 0.0
2014-Jul-10 23:32N 43°32' E 007°02'0 0.0
2014-Jul-10 22:29N 43°32' E 007°02'0 0.0
2014-Jul-10 21:29N 43°32' E 007°02'0 0.0
2014-Jul-10 20:32N 43°32' E 007°02'0 0.0
2014-Jul-10 19:32N 43°32' E 007°02'0 0.0
2014-Jul-10 18:32N 43°32' E 007°02'1 1.0
2014-Jul-10 17:33N 43°32' E 007°01'3 2.9
2014-Jul-10 16:28N 43°31' E 006°57'0 0.0
2014-Jul-10 15:28N 43°31' E 006°57'0 0.0
2014-Jul-10 14:31N 43°31' E 006°57'0 0.0
2014-Jul-10 13:31N 43°31' E 006°57'0 0.0
2014-Jul-10 12:31N 43°31' E 006°57'0 0.0
2014-Jul-10 11:31N 43°31' E 006°57'2 2.3
2014-Jul-10 10:33N 43°28' E 006°57'1111.5
2014-Jul-10 09:33N 43°21' E 006°46'8 7.9
2014-Jul-10 08:33N 43°17' E 006°36'0 0.0
2014-Jul-10 07:33N 43°17' E 006°36'0 0.1
2014-Jul-10 06:33N 43°17' E 006°36'9 9.1
2014-Jul-10 05:33N 43°21' E 006°47'1312.5
2014-Jul-10 04:33N 43°29' E 007°01'6 5.9
2014-Jul-10 03:33N 43°34' E 007°06'0 0.0
2014-Jul-10 02:33N 43°33' E 007°06'0 0.0
2014-Jul-10 01:33N 43°33' E 007°06'0 0.0
2014-Jul-10 00:33N 43°34' E 007°06'0 0.0
2014-Jul-09 23:33N 43°33' E 007°06'0 0.0
2014-Jul-09 22:33N 43°34' E 007°06'0 0.0
2014-Jul-09 21:33N 43°33' E 007°06'0 0.0
2014-Jul-09 20:33N 43°34' E 007°06'0 0.0
2014-Jul-09 19:33N 43°33' E 007°06'0 0.0
2014-Jul-09 18:21N 43°34' E 007°06'0 0.0
2014-Jul-09 17:33N 43°33' E 007°06'0 0.0
2014-Jul-09 16:33N 43°33' E 007°06'1 0.9
2014-Jul-09 15:31N 43°33' E 007°07'0 0.0
2014-Jul-09 14:33N 43°33' E 007°07'0 0.0
2014-Jul-09 13:33N 43°33' E 007°07'0 0.0
2014-Jul-09 12:33N 43°33' E 007°07'0 0.0
2014-Jul-09 11:33N 43°33' E 007°07'4 4.5
2014-Jul-09 10:34N 43°35' E 007°13'1312.8
2014-Jul-09 09:32N 43°44' E 007°26'1 0.0
2014-Jul-07 16:09N 43°44' E 007°26'5 8.1
2014-Jul-07 15:33N 43°42' E 007°20'0 0.0
2014-Jul-07 14:25N 43°42' E 007°20'57 4.1
2014-Jul-07 00:32N 43°52' E 008°39'1312.8
2014-Jul-06 23:33N 43°54' E 008°56'1212.5
2014-Jul-06 22:33N 43°56' E 009°13'1212.4
2014-Jul-06 21:33N 43°58' E 009°30'1312.6
2014-Jul-06 20:33N 44°01' E 009°47'4 3.8
2014-Jul-06 19:33N 44°03' E 009°51'0 0.0
2014-Jul-06 18:33N 44°03' E 009°51'0 0.0
2014-Jul-06 17:33N 44°03' E 009°51'0 0.0
2014-Jul-06 16:33N 44°03' E 009°51'0 0.0
2014-Jul-06 15:33N 44°03' E 009°51'0 0.0
2014-Jul-06 14:33N 44°03' E 009°51'0 0.0
2014-Jul-06 13:33N 44°03' E 009°51'0 0.0
2014-Jul-06 12:33N 44°03' E 009°51'0 0.0
2014-Jul-06 11:33N 44°03' E 009°51'0 0.0
2014-Jul-06 10:33N 44°03' E 009°51'0 0.0
2014-Jul-06 09:33N 44°03' E 009°51'0 0.0
2014-Jul-06 08:33N 44°03' E 009°51'0 0.0
2014-Jul-06 07:33N 44°03' E 009°51'0 0.0
2014-Jul-06 06:33N 44°03' E 009°51'0 0.0
2014-Jul-06 05:33N 44°03' E 009°51'0 0.0
2014-Jul-06 04:33N 44°03' E 009°51'0 0.0
2014-Jul-06 03:33N 44°03' E 009°51'0 0.0
2014-Jul-06 02:33N 44°03' E 009°51'0 0.0
2014-Jul-06 01:33N 44°03' E 009°51'1 0.6
2014-Jul-06 00:34N 44°03' E 009°52'9 8.5
2014-Jul-05 23:33N 44°05' E 009°40'1211.8
2014-Jul-05 22:33N 44°11' E 009°27'1211.2
2014-Jul-05 21:31N 44°18' E 009°14'0 0.2
2014-Jul-05 19:12N 44°19' E 009°13'0 0.0
2014-Jul-05 18:24N 44°19' E 009°13'0 0.0
2014-Jul-05 16:06N 44°19' E 009°13'0 0.0
2014-Jul-05 11:09N 44°19' E 009°13'0 0.0
2014-Jul-04 13:08N 44°18' E 009°13'2 2.8
2014-Jul-04 12:33N 44°18' E 009°11'1211.5
2014-Jul-04 11:33N 44°20' E 008°55'6 5.8
2014-Jul-04 10:33N 44°25' E 008°50'0 0.0
2014-Jul-04 07:21N 44°25' E 008°50'0 0.0
2014-Jul-04 06:33N 44°25' E 008°50'0 0.0
2014-Jul-04 04:30N 44°25' E 008°50'0 0.0
2014-Jul-04 03:30N 44°25' E 008°50'0 0.0
2014-Jul-04 02:30N 44°25' E 008°50'0 0.0
2014-Jul-04 01:33N 44°25' E 008°50'0 0.0
2014-Jul-04 00:33N 44°25' E 008°50'  

Dump ship's entire track history